sensor_id;sensor_type;location;lat;lon;timestamp;pressure;altitude;pressure_sealevel;temperature;humidity
29247;BME280;16272;48.188;9.964;2023-03-16T00:00:08;96138.31;;;0.41;75.76
29247;BME280;16272;48.188;9.964;2023-03-16T00:02:42;96129.91;;;0.68;73.71
29247;BME280;16272;48.188;9.964;2023-03-16T00:05:09;96136.13;;;0.49;74.52
29247;BME280;16272;48.188;9.964;2023-03-16T00:07:36;96131.78;;;0.66;73.59
29247;BME280;16272;48.188;9.964;2023-03-16T00:10:02;96114.97;;;0.54;73.76
29247;BME280;16272;48.188;9.964;2023-03-16T00:12:27;96120.81;;;0.59;74.01
29247;BME280;16272;48.188;9.964;2023-03-16T00:14:53;96120.31;;;0.02;76.45
29247;BME280;16272;48.188;9.964;2023-03-16T00:17:19;96115.81;;;0.05;77.36
29247;BME280;16272;48.188;9.964;2023-03-16T00:19:47;96124.09;;;0.29;75.60
29247;BME280;16272;48.188;9.964;2023-03-16T00:22:14;96117.97;;;-0.03;77.29
29247;BME280;16272;48.188;9.964;2023-03-16T00:24:40;96124.84;;;-0.02;77.91
29247;BME280;16272;48.188;9.964;2023-03-16T00:27:11;96127.41;;;0.33;75.96
29247;BME280;16272;48.188;9.964;2023-03-16T00:29:43;96127.34;;;0.50;73.83
29247;BME280;16272;48.188;9.964;2023-03-16T00:32:17;96127.28;;;0.18;76.60
29247;BME280;16272;48.188;9.964;2023-03-16T00:34:44;96125.69;;;0.49;75.98
29247;BME280;16272;48.188;9.964;2023-03-16T00:37:10;96128.88;;;0.21;76.21
29247;BME280;16272;48.188;9.964;2023-03-16T00:39:40;96125.22;;;0.08;77.52
29247;BME280;16272;48.188;9.964;2023-03-16T00:42:06;96121.97;;;0.53;75.89
29247;BME280;16272;48.188;9.964;2023-03-16T00:44:32;96118.94;;;0.61;75.40
29247;BME280;16272;48.188;9.964;2023-03-16T00:46:57;96129.84;;;0.36;75.62
29247;BME280;16272;48.188;9.964;2023-03-16T00:49:22;96122.41;;;0.62;74.94
29247;BME280;16272;48.188;9.964;2023-03-16T00:51:48;96123.31;;;0.61;72.51
29247;BME280;16272;48.188;9.964;2023-03-16T00:54:13;96123.66;;;0.70;74.12
29247;BME280;16272;48.188;9.964;2023-03-16T00:56:38;96117.09;;;0.79;71.86
29247;BME280;16272;48.188;9.964;2023-03-16T00:59:04;96118.19;;;0.91;72.51
29247;BME280;16272;48.188;9.964;2023-03-16T01:01:30;96120.47;;;0.97;71.44
29247;BME280;16272;48.188;9.964;2023-03-16T01:03:57;96123.25;;;1.10;70.44
29247;BME280;16272;48.188;9.964;2023-03-16T01:06:24;96114.34;;;0.33;74.35
29247;BME280;16272;48.188;9.964;2023-03-16T01:08:50;96111.34;;;0.57;73.27
29247;BME280;16272;48.188;9.964;2023-03-16T01:11:21;96111.19;;;0.60;71.46
29247;BME280;16272;48.188;9.964;2023-03-16T01:13:48;96119.94;;;0.59;72.85
29247;BME280;16272;48.188;9.964;2023-03-16T01:16:17;96123.78;;;0.35;73.04
29247;BME280;16272;48.188;9.964;2023-03-16T01:18:43;96118.44;;;0.54;73.06
29247;BME280;16272;48.188;9.964;2023-03-16T01:21:10;96116.25;;;0.95;70.35
29247;BME280;16272;48.188;9.964;2023-03-16T01:23:38;96103.41;;;0.90;69.93
29247;BME280;16272;48.188;9.964;2023-03-16T01:26:04;96102.75;;;0.70;72.01
29247;BME280;16272;48.188;9.964;2023-03-16T01:28:31;96103.34;;;0.91;70.48
29247;BME280;16272;48.188;9.964;2023-03-16T01:31:08;96102.91;;;0.51;72.21
29247;BME280;16272;48.188;9.964;2023-03-16T01:33:34;96107.75;;;0.59;70.42
29247;BME280;16272;48.188;9.964;2023-03-16T01:36:11;96105.94;;;0.44;70.23
29247;BME280;16272;48.188;9.964;2023-03-16T01:38:37;96098.72;;;0.65;69.65
29247;BME280;16272;48.188;9.964;2023-03-16T01:41:04;96093.47;;;0.97;69.49
29247;BME280;16272;48.188;9.964;2023-03-16T01:43:31;96090.25;;;1.07;69.04
29247;BME280;16272;48.188;9.964;2023-03-16T01:48:31;96094.97;;;0.37;69.96
29247;BME280;16272;48.188;9.964;2023-03-16T01:51:23;96088.22;;;0.33;70.82
29247;BME280;16272;48.188;9.964;2023-03-16T01:53:56;96087.56;;;0.45;72.91
29247;BME280;16272;48.188;9.964;2023-03-16T01:56:29;96089.25;;;0.46;71.49
29247;BME280;16272;48.188;9.964;2023-03-16T01:59:00;96085.78;;;-0.04;74.44
29247;BME280;16272;48.188;9.964;2023-03-16T02:01:26;96082.38;;;0.28;72.92
29247;BME280;16272;48.188;9.964;2023-03-16T02:04:01;96087.44;;;0.31;71.46
29247;BME280;16272;48.188;9.964;2023-03-16T02:06:30;96083.94;;;-0.02;73.34
29247;BME280;16272;48.188;9.964;2023-03-16T02:08:56;96072.22;;;0.23;73.80
29247;BME280;16272;48.188;9.964;2023-03-16T02:11:23;96076.09;;;0.32;70.07
29247;BME280;16272;48.188;9.964;2023-03-16T02:13:49;96083.50;;;0.24;71.01
29247;BME280;16272;48.188;9.964;2023-03-16T02:16:16;96080.34;;;-0.16;72.76
29247;BME280;16272;48.188;9.964;2023-03-16T02:18:45;96082.69;;;-0.28;73.30
29247;BME280;16272;48.188;9.964;2023-03-16T02:21:15;96083.28;;;0.11;73.84
29247;BME280;16272;48.188;9.964;2023-03-16T02:23:44;96074.91;;;0.22;72.17
29247;BME280;16272;48.188;9.964;2023-03-16T02:31:13;96067.09;;;-0.47;73.21
29247;BME280;16272;48.188;9.964;2023-03-16T02:33:39;96073.59;;;-0.21;72.37
29247;BME280;16272;48.188;9.964;2023-03-16T02:36:06;96067.19;;;-0.31;75.33
29247;BME280;16272;48.188;9.964;2023-03-16T02:38:31;96078.16;;;-0.08;70.73
29247;BME280;16272;48.188;9.964;2023-03-16T02:41:18;96076.81;;;-0.15;73.53
29247;BME280;16272;48.188;9.964;2023-03-16T02:43:53;96080.03;;;-0.10;70.50
29247;BME280;16272;48.188;9.964;2023-03-16T02:46:22;96080.09;;;-0.12;72.94
29247;BME280;16272;48.188;9.964;2023-03-16T02:48:55;96076.06;;;-0.35;74.54
29247;BME280;16272;48.188;9.964;2023-03-16T02:51:23;96078.50;;;-0.14;70.32
29247;BME280;16272;48.188;9.964;2023-03-16T02:53:48;96068.00;;;-0.30;71.42
29247;BME280;16272;48.188;9.964;2023-03-16T02:56:13;96075.91;;;-0.49;72.75
29247;BME280;16272;48.188;9.964;2023-03-16T02:58:39;96072.06;;;-0.25;73.62
29247;BME280;16272;48.188;9.964;2023-03-16T03:01:04;96067.63;;;-0.40;73.55
29247;BME280;16272;48.188;9.964;2023-03-16T03:03:30;96072.47;;;-0.67;73.75
29247;BME280;16272;48.188;9.964;2023-03-16T03:05:58;96064.72;;;-0.34;73.05
29247;BME280;16272;48.188;9.964;2023-03-16T03:08:23;96059.44;;;-0.16;72.10
29247;BME280;16272;48.188;9.964;2023-03-16T03:10:49;96055.38;;;-0.56;73.17
29247;BME280;16272;48.188;9.964;2023-03-16T03:13:14;96053.19;;;-0.30;71.07
29247;BME280;16272;48.188;9.964;2023-03-16T03:15:39;96058.53;;;-0.15;71.34
29247;BME280;16272;48.188;9.964;2023-03-16T03:18:05;96059.00;;;-0.25;71.52
29247;BME280;16272;48.188;9.964;2023-03-16T03:20:31;96050.47;;;-0.44;72.75
29247;BME280;16272;48.188;9.964;2023-03-16T03:22:56;96052.91;;;-0.59;74.14
29247;BME280;16272;48.188;9.964;2023-03-16T03:25:22;96052.50;;;-0.33;73.93
29247;BME280;16272;48.188;9.964;2023-03-16T03:27:49;96054.41;;;-0.20;73.85
29247;BME280;16272;48.188;9.964;2023-03-16T03:30:17;96057.03;;;-0.37;71.79
29247;BME280;16272;48.188;9.964;2023-03-16T03:32:43;96056.44;;;-0.60;73.66
29247;BME280;16272;48.188;9.964;2023-03-16T03:35:09;96054.78;;;-0.61;73.40
29247;BME280;16272;48.188;9.964;2023-03-16T03:37:37;96048.31;;;-0.71;73.56
29247;BME280;16272;48.188;9.964;2023-03-16T03:40:03;96061.50;;;-0.91;76.06
29247;BME280;16272;48.188;9.964;2023-03-16T03:42:29;96044.94;;;-0.56;72.83
29247;BME280;16272;48.188;9.964;2023-03-16T03:44:54;96040.47;;;-0.53;71.74
29247;BME280;16272;48.188;9.964;2023-03-16T03:47:19;96058.44;;;-1.00;75.67
29247;BME280;16272;48.188;9.964;2023-03-16T03:49:45;96055.78;;;-1.17;75.51
29247;BME280;16272;48.188;9.964;2023-03-16T03:52:10;96051.66;;;-1.04;75.53
29247;BME280;16272;48.188;9.964;2023-03-16T03:54:36;96050.47;;;-0.97;74.27
29247;BME280;16272;48.188;9.964;2023-03-16T03:57:01;96051.66;;;-0.69;74.15
29247;BME280;16272;48.188;9.964;2023-03-16T03:59:27;96045.38;;;-0.82;75.51
29247;BME280;16272;48.188;9.964;2023-03-16T04:01:52;96043.09;;;-0.36;74.02
29247;BME280;16272;48.188;9.964;2023-03-16T04:04:18;96047.91;;;-1.35;76.04
29247;BME280;16272;48.188;9.964;2023-03-16T04:06:44;96043.19;;;-1.26;75.82
29247;BME280;16272;48.188;9.964;2023-03-16T04:09:09;96035.91;;;-0.83;75.88
29247;BME280;16272;48.188;9.964;2023-03-16T04:11:35;96033.75;;;-0.75;75.43
29247;BME280;16272;48.188;9.964;2023-03-16T04:14:01;96026.53;;;-0.87;75.77
29247;BME280;16272;48.188;9.964;2023-03-16T04:16:26;96038.41;;;-0.99;76.43
29247;BME280;16272;48.188;9.964;2023-03-16T04:18:52;96038.88;;;-0.73;75.34
29247;BME280;16272;48.188;9.964;2023-03-16T04:21:19;96044.94;;;-0.73;75.22
29247;BME280;16272;48.188;9.964;2023-03-16T04:23:45;96037.19;;;-0.57;73.61
29247;BME280;16272;48.188;9.964;2023-03-16T04:26:10;96046.47;;;-0.69;71.93
29247;BME280;16272;48.188;9.964;2023-03-16T04:28:36;96037.81;;;-0.87;71.76
29247;BME280;16272;48.188;9.964;2023-03-16T04:31:04;96035.41;;;-1.45;75.47
29247;BME280;16272;48.188;9.964;2023-03-16T04:33:31;96028.34;;;-1.07;75.07
29247;BME280;16272;48.188;9.964;2023-03-16T04:35:57;96029.13;;;-0.70;73.67
29247;BME280;16272;48.188;9.964;2023-03-16T04:38:23;96022.66;;;-0.45;72.96
29247;BME280;16272;48.188;9.964;2023-03-16T04:40:48;96023.91;;;-1.05;74.01
29247;BME280;16272;48.188;9.964;2023-03-16T04:43:13;96026.81;;;-0.94;73.55
29247;BME280;16272;48.188;9.964;2023-03-16T04:45:39;96029.72;;;-0.82;73.90
29247;BME280;16272;48.188;9.964;2023-03-16T04:48:05;96027.75;;;-0.42;73.46
29247;BME280;16272;48.188;9.964;2023-03-16T04:50:30;96016.78;;;-0.33;70.91
29247;BME280;16272;48.188;9.964;2023-03-16T04:52:57;96020.50;;;-0.37;69.51
29247;BME280;16272;48.188;9.964;2023-03-16T04:55:22;96015.16;;;-0.69;71.65
29247;BME280;16272;48.188;9.964;2023-03-16T04:57:47;96014.72;;;-0.95;72.31
29247;BME280;16272;48.188;9.964;2023-03-16T05:00:13;96006.56;;;-0.71;73.98
29247;BME280;16272;48.188;9.964;2023-03-16T05:02:47;96003.59;;;-0.63;70.14
29247;BME280;16272;48.188;9.964;2023-03-16T05:05:13;96004.81;;;-0.70;73.11
29247;BME280;16272;48.188;9.964;2023-03-16T05:07:39;96012.53;;;-0.51;72.87
29247;BME280;16272;48.188;9.964;2023-03-16T05:10:06;96008.03;;;-0.65;71.43
29247;BME280;16272;48.188;9.964;2023-03-16T05:12:32;96009.75;;;-0.31;69.08
29247;BME280;16272;48.188;9.964;2023-03-16T05:14:57;95996.66;;;-0.64;71.38
29247;BME280;16272;48.188;9.964;2023-03-16T05:17:23;96001.13;;;-0.66;71.37
29247;BME280;16272;48.188;9.964;2023-03-16T05:19:48;96000.69;;;-0.41;69.32
29247;BME280;16272;48.188;9.964;2023-03-16T05:22:14;95995.38;;;-0.73;71.18
29247;BME280;16272;48.188;9.964;2023-03-16T05:24:39;96000.22;;;-0.65;69.28
29247;BME280;16272;48.188;9.964;2023-03-16T05:27:05;96007.84;;;-0.45;69.47
29247;BME280;16272;48.188;9.964;2023-03-16T05:29:30;96008.88;;;-0.47;70.25
29247;BME280;16272;48.188;9.964;2023-03-16T05:31:56;96012.22;;;-0.45;72.63
29247;BME280;16272;48.188;9.964;2023-03-16T05:34:21;96006.34;;;-0.33;71.84
29247;BME280;16272;48.188;9.964;2023-03-16T05:36:47;96003.81;;;-0.50;71.74
29247;BME280;16272;48.188;9.964;2023-03-16T05:39:12;96006.34;;;-0.33;71.56
29247;BME280;16272;48.188;9.964;2023-03-16T05:41:38;96003.13;;;-0.54;71.18
29247;BME280;16272;48.188;9.964;2023-03-16T05:44:03;96009.31;;;-0.57;71.00
29247;BME280;16272;48.188;9.964;2023-03-16T05:46:29;96011.72;;;-0.19;68.43
29247;BME280;16272;48.188;9.964;2023-03-16T05:48:55;96009.25;;;-0.22;69.25
29247;BME280;16272;48.188;9.964;2023-03-16T05:51:20;96008.78;;;-0.12;69.51
29247;BME280;16272;48.188;9.964;2023-03-16T05:53:47;96013.63;;;-0.22;71.49
29247;BME280;16272;48.188;9.964;2023-03-16T05:56:12;96004.25;;;-0.42;72.30
29247;BME280;16272;48.188;9.964;2023-03-16T05:58:37;95998.53;;;-0.66;73.00
29247;BME280;16272;48.188;9.964;2023-03-16T06:01:04;96002.81;;;0.02;69.08
29247;BME280;16272;48.188;9.964;2023-03-16T06:03:30;96005.38;;;0.19;69.13
29247;BME280;16272;48.188;9.964;2023-03-16T06:05:56;95995.84;;;0.18;69.02
29247;BME280;16272;48.188;9.964;2023-03-16T06:08:21;96001.16;;;0.32;68.51
29247;BME280;16272;48.188;9.964;2023-03-16T06:10:46;96006.88;;;0.07;70.15
29247;BME280;16272;48.188;9.964;2023-03-16T06:13:12;96004.63;;;0.33;70.07
29247;BME280;16272;48.188;9.964;2023-03-16T06:15:38;95997.97;;;0.43;68.62
29247;BME280;16272;48.188;9.964;2023-03-16T06:18:03;96007.03;;;0.04;72.01
29247;BME280;16272;48.188;9.964;2023-03-16T06:20:28;95998.72;;;0.61;69.90
29247;BME280;16272;48.188;9.964;2023-03-16T06:22:53;95993.88;;;0.85;69.46
29247;BME280;16272;48.188;9.964;2023-03-16T06:25:19;95999.78;;;0.89;69.12
29247;BME280;16272;48.188;9.964;2023-03-16T06:27:44;96001.72;;;0.85;68.76
29247;BME280;16272;48.188;9.964;2023-03-16T06:30:11;95995.06;;;1.55;68.13
29247;BME280;16272;48.188;9.964;2023-03-16T06:32:37;95997.88;;;1.21;69.76
29247;BME280;16272;48.188;9.964;2023-03-16T06:35:03;95995.56;;;1.17;71.42
29247;BME280;16272;48.188;9.964;2023-03-16T06:37:29;95994.25;;;1.83;69.03
29247;BME280;16272;48.188;9.964;2023-03-16T06:39:55;95997.50;;;2.01;67.83
29247;BME280;16272;48.188;9.964;2023-03-16T06:42:20;96000.22;;;2.28;67.14
29247;BME280;16272;48.188;9.964;2023-03-16T06:44:46;95993.47;;;2.24;67.94
29247;BME280;16272;48.188;9.964;2023-03-16T06:47:11;95987.13;;;2.55;66.77
29247;BME280;16272;48.188;9.964;2023-03-16T06:49:37;95992.56;;;2.52;65.85
29247;BME280;16272;48.188;9.964;2023-03-16T06:52:03;96000.84;;;2.32;67.18
29247;BME280;16272;48.188;9.964;2023-03-16T06:54:29;95995.13;;;2.81;65.75
29247;BME280;16272;48.188;9.964;2023-03-16T06:56:56;95994.13;;;2.69;66.38
29247;BME280;16272;48.188;9.964;2023-03-16T06:59:22;96001.81;;;2.72;65.81
29247;BME280;16272;48.188;9.964;2023-03-16T07:01:47;96000.84;;;2.73;67.17
29247;BME280;16272;48.188;9.964;2023-03-16T07:04:14;95985.16;;;2.86;66.58
29247;BME280;16272;48.188;9.964;2023-03-16T07:06:40;95992.44;;;2.68;67.29
29247;BME280;16272;48.188;9.964;2023-03-16T07:09:06;95995.00;;;2.83;68.69
29247;BME280;16272;48.188;9.964;2023-03-16T07:11:31;95991.66;;;2.81;67.97
29247;BME280;16272;48.188;9.964;2023-03-16T07:13:56;95986.91;;;3.00;67.46
29247;BME280;16272;48.188;9.964;2023-03-16T07:16:22;95992.19;;;2.86;67.92
29247;BME280;16272;48.188;9.964;2023-03-16T07:18:48;95996.13;;;2.79;68.32
29247;BME280;16272;48.188;9.964;2023-03-16T07:21:13;95997.47;;;2.71;69.34
29247;BME280;16272;48.188;9.964;2023-03-16T07:23:38;95989.03;;;3.21;66.78
29247;BME280;16272;48.188;9.964;2023-03-16T07:26:05;95990.06;;;3.05;68.13
29247;BME280;16272;48.188;9.964;2023-03-16T07:28:33;95988.84;;;3.24;66.77
29247;BME280;16272;48.188;9.964;2023-03-16T07:30:58;95993.28;;;3.36;66.82
29247;BME280;16272;48.188;9.964;2023-03-16T07:33:23;96000.03;;;2.31;70.90
29247;BME280;16272;48.188;9.964;2023-03-16T07:35:48;96002.00;;;2.69;70.06
29247;BME280;16272;48.188;9.964;2023-03-16T07:38:14;96004.09;;;3.04;68.75
29247;BME280;16272;48.188;9.964;2023-03-16T07:40:39;95987.22;;;3.21;67.83
29247;BME280;16272;48.188;9.964;2023-03-16T07:43:06;95999.78;;;3.82;66.43
29247;BME280;16272;48.188;9.964;2023-03-16T07:45:31;96000.25;;;3.76;66.01
29247;BME280;16272;48.188;9.964;2023-03-16T07:47:56;96010.84;;;3.61;66.23
29247;BME280;16272;48.188;9.964;2023-03-16T07:50:22;96014.72;;;3.81;66.40
29247;BME280;16272;48.188;9.964;2023-03-16T07:52:47;96013.91;;;3.94;66.51
29247;BME280;16272;48.188;9.964;2023-03-16T07:55:13;96005.25;;;3.53;67.67
29247;BME280;16272;48.188;9.964;2023-03-16T07:57:38;96007.13;;;4.65;64.64
29247;BME280;16272;48.188;9.964;2023-03-16T08:00:07;96009.00;;;4.26;66.98
29247;BME280;16272;48.188;9.964;2023-03-16T08:02:32;96008.09;;;4.88;66.36
29247;BME280;16272;48.188;9.964;2023-03-16T08:04:57;96005.16;;;5.17;63.13
29247;BME280;16272;48.188;9.964;2023-03-16T08:07:23;96008.44;;;5.32;63.24
29247;BME280;16272;48.188;9.964;2023-03-16T08:09:48;96000.13;;;6.07;59.43
29247;BME280;16272;48.188;9.964;2023-03-16T08:12:15;95995.06;;;9.51;50.95
29247;BME280;16272;48.188;9.964;2023-03-16T08:14:40;95972.97;;;13.29;45.83
29247;BME280;16272;48.188;9.964;2023-03-16T08:17:06;95965.75;;;15.00;40.97
29247;BME280;16272;48.188;9.964;2023-03-16T08:19:31;95969.94;;;16.78;39.04
29247;BME280;16272;48.188;9.964;2023-03-16T08:21:57;95971.03;;;13.88;38.21
29247;BME280;16272;48.188;9.964;2023-03-16T08:24:26;95977.97;;;14.95;38.97
29247;BME280;16272;48.188;9.964;2023-03-16T08:26:51;95974.53;;;15.40;41.41
29247;BME280;16272;48.188;9.964;2023-03-16T08:29:16;95991.00;;;10.43;45.83
29247;BME280;16272;48.188;9.964;2023-03-16T08:31:43;95996.16;;;9.29;51.23
29247;BME280;16272;48.188;9.964;2023-03-16T08:34:09;96007.66;;;8.39;60.04
29247;BME280;16272;48.188;9.964;2023-03-16T08:36:35;96007.47;;;6.93;56.29
29247;BME280;16272;48.188;9.964;2023-03-16T08:39:01;96014.09;;;5.39;62.62
29247;BME280;16272;48.188;9.964;2023-03-16T08:41:30;95999.25;;;5.49;64.05
29247;BME280;16272;48.188;9.964;2023-03-16T08:43:57;96003.94;;;7.15;64.28
29247;BME280;16272;48.188;9.964;2023-03-16T08:46:22;96004.06;;;7.88;60.68
29247;BME280;16272;48.188;9.964;2023-03-16T08:48:48;96003.44;;;6.77;62.06
29247;BME280;16272;48.188;9.964;2023-03-16T08:51:14;95997.59;;;7.39;60.72
29247;BME280;16272;48.188;9.964;2023-03-16T08:53:40;96007.78;;;5.99;64.03
29247;BME280;16272;48.188;9.964;2023-03-16T08:56:10;96002.53;;;7.32;61.52
29247;BME280;16272;48.188;9.964;2023-03-16T08:58:37;96007.22;;;6.96;62.18
29247;BME280;16272;48.188;9.964;2023-03-16T09:01:04;96005.53;;;8.33;58.70
29247;BME280;16272;48.188;9.964;2023-03-16T09:03:31;96009.09;;;7.70;59.59
29247;BME280;16272;48.188;9.964;2023-03-16T09:06:05;96009.72;;;5.62;63.50
29247;BME280;16272;48.188;9.964;2023-03-16T09:08:32;95999.56;;;7.58;63.58
29247;BME280;16272;48.188;9.964;2023-03-16T09:11:08;95999.78;;;8.27;59.67
29247;BME280;16272;48.188;9.964;2023-03-16T09:13:34;96001.84;;;7.30;61.22
29247;BME280;16272;48.188;9.964;2023-03-16T09:16:00;95998.13;;;7.75;60.43
29247;BME280;16272;48.188;9.964;2023-03-16T09:18:27;95996.81;;;7.90;58.29
29247;BME280;16272;48.188;9.964;2023-03-16T09:20:59;95994.97;;;8.12;56.69
29247;BME280;16272;48.188;9.964;2023-03-16T09:23:25;96002.06;;;6.28;62.53
29247;BME280;16272;48.188;9.964;2023-03-16T09:25:52;96004.81;;;6.38;61.83
29247;BME280;16272;48.188;9.964;2023-03-16T09:28:18;96008.84;;;4.90;67.16
29247;BME280;16272;48.188;9.964;2023-03-16T09:30:44;96001.88;;;6.75;63.19
29247;BME280;16272;48.188;9.964;2023-03-16T09:33:09;95994.41;;;8.39;59.80
29247;BME280;16272;48.188;9.964;2023-03-16T09:35:36;95996.25;;;6.68;60.92
29247;BME280;16272;48.188;9.964;2023-03-16T09:38:02;95990.84;;;7.13;60.96
29247;BME280;16272;48.188;9.964;2023-03-16T09:40:29;95991.63;;;7.58;59.49
29247;BME280;16272;48.188;9.964;2023-03-16T09:45:37;95986.72;;;7.74;60.87
29247;BME280;16272;48.188;9.964;2023-03-16T09:48:08;95977.72;;;7.86;58.05
29247;BME280;16272;48.188;9.964;2023-03-16T09:50:37;95980.44;;;7.33;60.09
29247;BME280;16272;48.188;9.964;2023-03-16T09:53:28;95972.47;;;6.79;62.22
29247;BME280;16272;48.188;9.964;2023-03-16T09:58:24;95947.44;;;9.89;54.82
29247;BME280;16272;48.188;9.964;2023-03-16T10:06:21;95947.97;;;8.15;60.75
29247;BME280;16272;48.188;9.964;2023-03-16T10:08:53;95933.69;;;8.88;57.66
29247;BME280;16272;48.188;9.964;2023-03-16T10:21:56;95907.81;;;9.78;56.11
29247;BME280;16272;48.188;9.964;2023-03-16T10:27:18;95887.50;;;10.79;49.57
29247;BME280;16272;48.188;9.964;2023-03-16T10:29:45;95888.97;;;9.71;51.86
29247;BME280;16272;48.188;9.964;2023-03-16T10:32:15;95891.34;;;10.02;49.40
29247;BME280;16272;48.188;9.964;2023-03-16T10:34:47;95886.66;;;10.61;49.80
29247;BME280;16272;48.188;9.964;2023-03-16T10:37:17;95885.59;;;9.79;50.42
29247;BME280;16272;48.188;9.964;2023-03-16T10:39:42;95876.00;;;10.97;48.92
29247;BME280;16272;48.188;9.964;2023-03-16T10:42:19;95882.81;;;10.08;49.38
29247;BME280;16272;48.188;9.964;2023-03-16T10:44:46;95872.56;;;11.40;48.53
29247;BME280;16272;48.188;9.964;2023-03-16T10:47:32;95872.88;;;10.47;47.65
29247;BME280;16272;48.188;9.964;2023-03-16T10:49:58;95873.91;;;10.37;48.91
29247;BME280;16272;48.188;9.964;2023-03-16T10:52:33;95869.69;;;11.34;47.84
29247;BME280;16272;48.188;9.964;2023-03-16T10:55:26;95862.97;;;11.03;44.10
29247;BME280;16272;48.188;9.964;2023-03-16T10:57:54;95857.59;;;11.66;46.16
29247;BME280;16272;48.188;9.964;2023-03-16T11:00:29;95864.19;;;10.18;48.13
29247;BME280;16272;48.188;9.964;2023-03-16T11:02:57;95864.75;;;11.65;46.70
29247;BME280;16272;48.188;9.964;2023-03-16T11:07:58;95870.09;;;11.91;44.93
29247;BME280;16272;48.188;9.964;2023-03-16T11:12:53;95851.25;;;11.58;43.62
29247;BME280;16272;48.188;9.964;2023-03-16T11:15:19;95856.09;;;11.37;45.52
29247;BME280;16272;48.188;9.964;2023-03-16T11:17:48;95852.09;;;12.95;42.28
29247;BME280;16272;48.188;9.964;2023-03-16T11:20:26;95860.88;;;11.33;45.00
29247;BME280;16272;48.188;9.964;2023-03-16T11:22:53;95865.03;;;11.88;43.56
29247;BME280;16272;48.188;9.964;2023-03-16T11:25:32;95869.34;;;11.55;42.27
29247;BME280;16272;48.188;9.964;2023-03-16T11:28:13;95871.13;;;11.72;41.82
29247;BME280;16272;48.188;9.964;2023-03-16T11:33:44;95847.28;;;12.82;40.24
29247;BME280;16272;48.188;9.964;2023-03-16T11:36:24;95848.44;;;13.04;40.74
29247;BME280;16272;48.188;9.964;2023-03-16T11:44:27;95852.13;;;11.93;39.62
29247;BME280;16272;48.188;9.964;2023-03-16T11:47:07;95848.97;;;11.19;42.89
29247;BME280;16272;48.188;9.964;2023-03-16T11:52:34;95834.19;;;12.38;42.31
29247;BME280;16272;48.188;9.964;2023-03-16T11:55:28;95828.50;;;12.25;39.77
29247;BME280;16272;48.188;9.964;2023-03-16T11:58:15;95829.94;;;12.19;42.11
29247;BME280;16272;48.188;9.964;2023-03-16T12:03:36;95825.09;;;13.23;43.57
29247;BME280;16272;48.188;9.964;2023-03-16T12:06:21;95826.91;;;12.06;39.68
29247;BME280;16272;48.188;9.964;2023-03-16T12:11:25;95812.94;;;12.04;39.52
29247;BME280;16272;48.188;9.964;2023-03-16T12:14:13;95814.31;;;13.33;42.47
29247;BME280;16272;48.188;9.964;2023-03-16T12:16:53;95815.78;;;12.78;38.45
29247;BME280;16272;48.188;9.964;2023-03-16T12:19:48;95807.97;;;14.69;38.19
29247;BME280;16272;48.188;9.964;2023-03-16T12:22:43;95802.91;;;13.64;36.79
29247;BME280;16272;48.188;9.964;2023-03-16T12:25:21;95804.78;;;13.22;38.68
29247;BME280;16272;48.188;9.964;2023-03-16T12:27:52;95806.44;;;11.19;41.88
29247;BME280;16272;48.188;9.964;2023-03-16T12:33:08;95802.66;;;11.83;40.17
29247;BME280;16272;48.188;9.964;2023-03-16T12:41:21;95780.78;;;14.34;35.62
29247;BME280;16272;48.188;9.964;2023-03-16T12:47:11;95791.78;;;12.02;43.53
29247;BME280;16272;48.188;9.964;2023-03-16T12:49:31;95780.44;;;12.51;40.29
29247;BME280;16272;48.188;9.964;2023-03-16T12:52:01;95772.47;;;12.92;35.90
29247;BME280;16272;48.188;9.964;2023-03-16T12:54:27;95772.13;;;12.71;44.95
29247;BME280;16272;48.188;9.964;2023-03-16T12:57:00;95776.31;;;12.90;40.66
29247;BME280;16272;48.188;9.964;2023-03-16T12:59:35;95778.47;;;12.61;38.25
29247;BME280;16272;48.188;9.964;2023-03-16T13:02:02;95777.06;;;12.32;38.42
29247;BME280;16272;48.188;9.964;2023-03-16T13:04:33;95775.44;;;13.30;38.89
29247;BME280;16272;48.188;9.964;2023-03-16T13:07:07;95773.16;;;12.86;39.71
29247;BME280;16272;48.188;9.964;2023-03-16T13:09:35;95763.47;;;12.85;39.28
29247;BME280;16272;48.188;9.964;2023-03-16T13:12:06;95759.16;;;12.59;42.49
29247;BME280;16272;48.188;9.964;2023-03-16T13:14:38;95751.50;;;12.73;40.61
29247;BME280;16272;48.188;9.964;2023-03-16T13:19:57;95748.88;;;11.63;41.65
29247;BME280;16272;48.188;9.964;2023-03-16T13:22:47;95749.44;;;12.25;43.05
29247;BME280;16272;48.188;9.964;2023-03-16T13:27:53;95750.31;;;12.67;41.50
29247;BME280;16272;48.188;9.964;2023-03-16T13:32:53;95749.81;;;12.80;38.54
29247;BME280;16272;48.188;9.964;2023-03-16T13:35:19;95742.78;;;13.03;42.07
29247;BME280;16272;48.188;9.964;2023-03-16T13:37:47;95745.63;;;12.61;41.92
29247;BME280;16272;48.188;9.964;2023-03-16T13:42:49;95737.97;;;12.33;43.20
29247;BME280;16272;48.188;9.964;2023-03-16T13:45:22;95740.78;;;12.23;44.03
29247;BME280;16272;48.188;9.964;2023-03-16T13:47:52;95743.50;;;12.64;42.38
29247;BME280;16272;48.188;9.964;2023-03-16T13:50:18;95739.69;;;12.00;42.79
29247;BME280;16272;48.188;9.964;2023-03-16T13:53:15;95745.53;;;12.03;42.08
29247;BME280;16272;48.188;9.964;2023-03-16T13:55:43;95744.78;;;12.36;42.22
29247;BME280;16272;48.188;9.964;2023-03-16T13:58:25;95739.50;;;13.74;38.60
29247;BME280;16272;48.188;9.964;2023-03-16T14:00:57;95744.47;;;12.63;43.76
29247;BME280;16272;48.188;9.964;2023-03-16T14:03:22;95737.13;;;12.32;40.52
29247;BME280;16272;48.188;9.964;2023-03-16T14:05:49;95729.16;;;12.74;39.69
29247;BME280;16272;48.188;9.964;2023-03-16T14:08:20;95735.31;;;12.33;42.37
29247;BME280;16272;48.188;9.964;2023-03-16T14:10:47;95720.78;;;12.11;39.56
29247;BME280;16272;48.188;9.964;2023-03-16T14:13:25;95726.47;;;12.41;37.66
29247;BME280;16272;48.188;9.964;2023-03-16T14:16:02;95729.13;;;12.98;38.48
29247;BME280;16272;48.188;9.964;2023-03-16T14:18:34;95728.13;;;13.08;38.55
29247;BME280;16272;48.188;9.964;2023-03-16T14:21:04;95719.50;;;12.89;40.27
29247;BME280;16272;48.188;9.964;2023-03-16T14:23:33;95717.81;;;12.88;41.23
29247;BME280;16272;48.188;9.964;2023-03-16T14:26:02;95727.25;;;12.17;42.92